Time;durP1;ratioP1;P1;durP2;ratioP2;P2;SDS_P1;SDS_P2;PMS_P1;PMS_P2;Temp;Humidity;BMP_temperature;BMP_pressure;BME280_temperature;BME280_humidity;BME280_pressure;Samples;Min_cycle;Max_cycle;Signal;HPM_P1;HPM_P2
2023/02/19 00:01:37;;;;;;;43.33;24.65;;;9.10;99.90;;;;;;5069122;28;20040;-77
2023/02/19 00:04:06;;;;;;;50.33;26.83;;;9.10;99.90;;;;;;5058379;28;20083;-71
2023/02/19 00:06:33;;;;;;;42.53;26.02;;;9.10;99.90;;;;;;5064167;28;20036;-71
2023/02/19 00:08:59;;;;;;;46.65;27.52;;;9.10;99.90;;;;;;5067158;28;20040;-71
2023/02/19 00:11:29;;;;;;;47.22;26.80;;;9.00;99.90;;;;;;5067898;28;20032;-71
2023/02/19 00:13:56;;;;;;;45.75;28.58;;;9.00;99.90;;;;;;5052800;28;20123;-71
2023/02/19 00:16:36;;;;;;;54.75;29.73;;;9.00;99.90;;;;;;5069469;28;20675;-72
2023/02/19 00:19:04;;;;;;;48.40;26.95;;;9.00;99.90;;;;;;5069094;28;20050;-70
2023/02/19 00:21:30;;;;;;;57.88;28.58;;;9.00;99.90;;;;;;5068890;28;20043;-70
2023/02/19 00:23:59;;;;;;;49.80;28.85;;;9.00;99.90;;;;;;5066360;28;20138;-71
2023/02/19 00:26:25;;;;;;;53.80;27.95;;;9.00;99.90;;;;;;5052961;28;20476;-71
2023/02/19 00:28:53;;;;;;;44.95;27.00;;;9.10;99.90;;;;;;5070414;28;20502;-71
2023/02/19 00:31:25;;;;;;;55.58;29.30;;;9.10;99.90;;;;;;5069776;28;20438;-71
2023/02/19 00:33:53;;;;;;;52.80;28.33;;;9.10;99.90;;;;;;5055590;28;20110;-71
2023/02/19 00:36:19;;;;;;;50.28;28.13;;;9.10;99.90;;;;;;5065148;28;20101;-71
2023/02/19 00:38:46;;;;;;;47.10;27.10;;;9.10;99.90;;;;;;5065156;28;20112;-70
2023/02/19 00:41:19;;;;;;;46.75;27.48;;;9.00;99.90;;;;;;5063312;28;20032;-70
2023/02/19 00:43:46;;;;;;;51.15;26.95;;;9.00;99.90;;;;;;5062337;28;20348;-70
2023/02/19 00:46:11;;;;;;;53.00;27.00;;;9.00;99.90;;;;;;5067382;28;20037;-70
2023/02/19 00:48:37;;;;;;;43.83;25.10;;;9.10;99.90;;;;;;5067738;28;20123;-70
2023/02/19 00:51:03;;;;;;;49.28;26.40;;;9.00;99.90;;;;;;5069862;28;20040;-70
2023/02/19 00:53:28;;;;;;;56.95;27.73;;;9.00;99.90;;;;;;5068916;28;20160;-69
2023/02/19 00:55:54;;;;;;;44.33;24.83;;;9.00;99.90;;;;;;5068191;28;20376;-70
2023/02/19 00:58:20;;;;;;;44.95;24.50;;;9.00;99.90;;;;;;5089001;28;20172;-70
2023/02/19 01:00:46;;;;;;;49.50;24.90;;;9.00;99.90;;;;;;5087170;28;20388;-69
2023/02/19 01:03:11;;;;;;;45.67;22.50;;;8.90;99.90;;;;;;5072892;28;20043;-69
2023/02/19 01:05:37;;;;;;;44.70;22.48;;;8.90;99.90;;;;;;5065931;28;20036;-69
2023/02/19 01:08:03;;;;;;;52.53;24.27;;;8.90;99.90;;;;;;5065879;28;20082;-69
2023/02/19 01:10:28;;;;;;;50.80;23.52;;;8.90;99.90;;;;;;5061133;28;20032;-69
2023/02/19 01:12:54;;;;;;;37.63;20.88;;;8.90;99.90;;;;;;5088200;28;20032;-69
2023/02/19 01:15:20;;;;;;;45.88;22.52;;;8.90;99.90;;;;;;5067685;28;20238;-70
2023/02/19 01:17:45;;;;;;;45.97;21.15;;;8.90;99.90;;;;;;5066183;28;20067;-69
2023/02/19 01:20:11;;;;;;;41.53;19.98;;;8.90;99.90;;;;;;5063760;28;20047;-69
2023/02/19 01:22:37;;;;;;;40.72;20.08;;;8.90;99.90;;;;;;5087872;28;20052;-68
2023/02/19 01:25:03;;;;;;;41.88;19.77;;;8.90;99.90;;;;;;5069458;28;20051;-68
2023/02/19 01:27:28;;;;;;;38.90;20.42;;;8.90;99.90;;;;;;5056365;28;20040;-68
2023/02/19 01:29:54;;;;;;;42.38;18.42;;;8.90;99.90;;;;;;5068509;28;20376;-68
2023/02/19 01:32:20;;;;;;;44.47;19.63;;;8.90;99.90;;;;;;5067858;28;20081;-69
2023/02/19 01:34:45;;;;;;;36.78;16.50;;;8.90;99.90;;;;;;5069136;28;20040;-68
2023/02/19 01:37:11;;;;;;;37.20;17.33;;;8.80;99.90;;;;;;5065011;28;20040;-69
2023/02/19 01:39:40;;;;;;;32.13;14.32;;;8.80;99.90;;;;;;5075608;28;20387;-69
2023/02/19 01:42:14;;;;;;;28.85;14.18;;;8.80;99.90;;;;;;5069582;28;20048;-67
2023/02/19 01:44:42;;;;;;;28.23;12.97;;;8.80;99.90;;;;;;5073656;28;20510;-68
2023/02/19 01:47:08;;;;;;;23.45;11.40;;;8.80;99.90;;;;;;5064980;28;20032;-68
2023/02/19 01:49:39;;;;;;;28.00;12.35;;;8.80;99.90;;;;;;5087817;28;20039;-69
2023/02/19 01:52:17;;;;;;;25.75;10.60;;;8.80;99.90;;;;;;5069684;28;20496;-68
2023/02/19 01:54:46;;;;;;;24.73;10.32;;;8.80;99.90;;;;;;5052243;28;20051;-69
2023/02/19 01:57:17;;;;;;;26.63;9.75;;;8.80;99.90;;;;;;5065250;28;20040;-70
2023/02/19 01:59:46;;;;;;;25.40;9.90;;;8.80;99.90;;;;;;5072301;28;20053;-70
2023/02/19 02:02:11;;;;;;;21.75;8.65;;;8.80;99.90;;;;;;5069546;28;20101;-69
2023/02/19 02:04:37;;;;;;;25.00;9.02;;;8.70;99.90;;;;;;5072228;28;20044;-69
2023/02/19 02:10:18;;;;;;;21.45;8.73;;;8.70;99.90;;;;;;5069987;28;20043;-69
2023/02/19 02:12:37;;;;;;;20.52;8.05;;;8.70;99.90;;;;;;5065156;28;20056;-69
2023/02/19 02:15:03;;;;;;;16.42;8.13;;;8.70;99.90;;;;;;5067603;28;20044;-69
2023/02/19 02:17:47;;;;;;;16.75;8.30;;;8.60;99.90;;;;;;5073394;28;20047;-69
2023/02/19 02:20:19;;;;;;;19.83;7.72;;;8.60;99.90;;;;;;5069578;28;20058;-68
2023/02/19 02:22:59;;;;;;;19.27;7.57;;;8.60;99.90;;;;;;5065988;28;20054;-70
2023/02/19 02:25:50;;;;;;;27.23;8.52;;;8.70;99.90;;;;;;5067770;28;20679;-69
2023/02/19 02:28:30;;;;;;;20.88;7.25;;;8.60;99.90;;;;;;5065231;28;20177;-69
2023/02/19 02:31:12;;;;;;;20.77;8.20;;;8.70;99.90;;;;;;5065420;28;20055;-71
2023/02/19 02:34:03;;;;;;;23.67;8.57;;;8.60;99.90;;;;;;5071622;28;20048;-69
2023/02/19 02:36:31;;;;;;;21.67;7.85;;;8.60;99.90;;;;;;5064206;28;20400;-70
2023/02/19 02:38:58;;;;;;;18.38;7.93;;;8.60;99.90;;;;;;5050552;28;20551;-70
2023/02/19 02:41:25;;;;;;;19.52;7.85;;;8.60;99.90;;;;;;5068994;28;20078;-70
2023/02/19 02:43:50;;;;;;;20.88;7.90;;;8.60;99.90;;;;;;5069598;28;20477;-69
2023/02/19 02:46:29;;;;;;;26.27;8.43;;;8.60;99.90;;;;;;5069517;28;20064;-70
2023/02/19 02:49:02;;;;;;;21.60;7.75;;;8.60;99.90;;;;;;5066752;28;20044;-69
2023/02/19 02:51:34;;;;;;;17.65;7.22;;;8.60;99.90;;;;;;5065926;28;20040;-69
2023/02/19 02:56:46;;;;;;;17.98;7.53;;;8.50;99.90;;;;;;5069151;28;20089;-69
2023/02/19 02:59:14;;;;;;;16.50;7.63;;;8.60;99.90;;;;;;5064981;28;20074;-69
2023/02/19 03:08:20;;;;;;;18.85;8.30;;;8.50;99.90;;;;;;5064348;28;20172;-68
2023/02/19 03:19:17;;;;;;;17.38;8.43;;;8.50;99.90;;;;;;5068246;28;20072;-69
2023/02/19 03:19:26;;;;;;;19.60;9.13;;;8.50;99.90;;;;;;5062894;28;20055;-69
2023/02/19 03:22:08;;;;;;;25.92;9.85;;;8.50;99.90;;;;;;5048237;28;20377;-69
2023/02/19 03:27:27;;;;;;;22.50;9.50;;;8.50;99.90;;;;;;5052581;28;20093;-68
2023/02/19 03:29:56;;;;;;;25.27;11.23;;;8.50;99.90;;;;;;5066893;28;20036;-68
2023/02/19 03:32:54;;;;;;;22.92;10.27;;;8.40;99.90;;;;;;5062673;28;20182;-69
2023/02/19 03:35:24;;;;;;;30.98;10.85;;;8.40;99.90;;;;;;5068938;28;20044;-69
2023/02/19 03:38:07;;;;;;;25.17;9.95;;;8.40;99.90;;;;;;5068063;28;20035;-68
2023/02/19 03:40:45;;;;;;;24.52;10.27;;;8.40;99.90;;;;;;5067555;28;20051;-68
2023/02/19 03:43:18;;;;;;;26.05;10.43;;;8.40;99.90;;;;;;5082898;28;20071;-69
2023/02/19 03:46:05;;;;;;;32.65;11.43;;;8.40;99.90;;;;;;5064681;28;20060;-69
2023/02/19 03:48:33;;;;;;;24.67;10.00;;;8.40;99.90;;;;;;5066246;28;20886;-69
2023/02/19 03:51:05;;;;;;;29.25;11.38;;;8.40;99.90;;;;;;5070829;28;20513;-69
2023/02/19 03:53:37;;;;;;;23.55;10.02;;;8.40;99.90;;;;;;5068360;28;20039;-69
2023/02/19 03:56:12;;;;;;;28.00;11.02;;;8.40;99.90;;;;;;5067326;28;20123;-68
2023/02/19 03:58:41;;;;;;;31.42;11.77;;;8.30;99.90;;;;;;5067971;28;20037;-69
2023/02/19 04:01:20;;;;;;;26.35;10.43;;;8.40;99.90;;;;;;5053450;28;20044;-68
2023/02/19 04:03:50;;;;;;;25.42;10.02;;;8.30;99.90;;;;;;5068461;28;20047;-68
2023/02/19 04:06:22;;;;;;;22.58;9.85;;;8.40;99.90;;;;;;5086433;28;20079;-68
2023/02/19 04:08:52;;;;;;;26.90;10.27;;;8.30;99.90;;;;;;5067854;28;20108;-67
2023/02/19 04:11:20;;;;;;;40.88;12.38;;;8.30;99.90;;;;;;5065447;28;20076;-67
2023/02/19 04:13:55;;;;;;;23.35;11.73;;;8.30;99.90;;;;;;5064252;28;20056;-68
2023/02/19 04:16:25;;;;;;;25.98;11.70;;;8.30;99.90;;;;;;5063205;28;20044;-68
2023/02/19 04:19:04;;;;;;;22.88;12.00;;;8.30;99.90;;;;;;5071122;28;20040;-67
2023/02/19 04:21:32;;;;;;;27.00;12.13;;;8.30;99.90;;;;;;5081760;28;20056;-67
2023/02/19 04:24:02;;;;;;;25.65;12.57;;;8.30;99.90;;;;;;5072248;28;20052;-67
2023/02/19 04:26:28;;;;;;;28.55;13.60;;;8.30;99.90;;;;;;5085090;28;20051;-68
2023/02/19 04:28:54;;;;;;;34.97;14.50;;;8.30;99.90;;;;;;5070959;28;20392;-67
2023/02/19 04:31:19;;;;;;;15.60;7.57;;;8.20;99.90;;;;;;5084788;28;20036;-68
2023/02/19 04:33:45;;;;;;;11.30;6.15;;;8.20;99.90;;;;;;5070912;28;20040;-68
2023/02/19 04:36:11;;;;;;;12.00;6.15;;;8.10;99.90;;;;;;5088060;28;20036;-68
2023/02/19 04:38:37;;;;;;;7.40;5.60;;;8.00;99.90;;;;;;5068774;28;20032;-67
2023/02/19 04:41:03;;;;;;;9.90;5.70;;;8.00;99.90;;;;;;5068382;28;20485;-67
2023/02/19 04:43:28;;;;;;;7.38;5.10;;;7.90;99.90;;;;;;5069698;28;20119;-68
2023/02/19 04:45:58;;;;;;;16.38;6.35;;;7.80;99.90;;;;;;5068169;28;20413;-68
2023/02/19 04:48:24;;;;;;;5.97;4.57;;;7.70;99.90;;;;;;5071225;28;20161;-68
2023/02/19 04:50:50;;;;;;;6.47;4.40;;;7.70;99.90;;;;;;5088502;28;20434;-68
2023/02/19 04:53:15;;;;;;;5.07;3.83;;;7.60;99.90;;;;;;5070588;28;20476;-67
2023/02/19 04:55:41;;;;;;;6.72;4.70;;;7.50;99.90;;;;;;5066399;28;20024;-68
2023/02/19 04:58:07;;;;;;;5.38;4.22;;;7.50;99.90;;;;;;5073654;28;20118;-68
2023/02/19 05:00:32;;;;;;;5.13;4.20;;;7.40;99.90;;;;;;5072729;28;20483;-68
2023/02/19 05:02:59;;;;;;;4.90;4.40;;;7.40;99.90;;;;;;5070070;28;20048;-68
2023/02/19 05:05:25;;;;;;;5.65;4.50;;;7.30;99.90;;;;;;5069609;28;20098;-67
2023/02/19 05:07:51;;;;;;;4.97;4.47;;;7.30;99.90;;;;;;5072058;28;20039;-67
2023/02/19 05:10:16;;;;;;;5.70;4.30;;;7.20;99.90;;;;;;5072925;28;20028;-68
2023/02/19 05:12:42;;;;;;;7.53;4.30;;;7.10;99.90;;;;;;5067798;28;20113;-68
2023/02/19 05:15:08;;;;;;;3.63;3.08;;;7.10;99.90;;;;;;5068281;28;20047;-67
2023/02/19 05:17:33;;;;;;;2.90;2.30;;;7.00;99.90;;;;;;5063514;28;20112;-68
2023/02/19 05:19:59;;;;;;;2.65;2.38;;;6.90;99.90;;;;;;5081158;28;20044;-67
2023/02/19 05:22:27;;;;;;;2.13;1.63;;;6.80;99.90;;;;;;5069193;28;20378;-68
2023/02/19 05:24:52;;;;;;;3.28;1.90;;;6.80;99.90;;;;;;5068132;28;20049;-67
2023/02/19 05:27:18;;;;;;;3.65;2.33;;;6.80;99.90;;;;;;5072653;28;20051;-67
2023/02/19 05:29:44;;;;;;;4.10;2.15;;;6.80;99.90;;;;;;5068674;28;20035;-67
2023/02/19 05:32:09;;;;;;;3.17;2.20;;;6.70;99.90;;;;;;5068552;28;20043;-67
2023/02/19 05:34:35;;;;;;;3.35;2.75;;;6.70;99.90;;;;;;5070602;28;20622;-67
2023/02/19 05:37:01;;;;;;;5.65;3.33;;;6.70;99.90;;;;;;5070182;28;20041;-67
2023/02/19 05:39:26;;;;;;;4.43;3.03;;;6.70;99.90;;;;;;5086527;28;20036;-67
2023/02/19 05:41:52;;;;;;;4.85;3.88;;;6.70;99.90;;;;;;5072215;28;20120;-67
2023/02/19 05:44:18;;;;;;;7.53;4.93;;;6.70;99.90;;;;;;5087503;28;20032;-67
2023/02/19 05:46:44;;;;;;;6.03;3.92;;;6.70;99.90;;;;;;5071762;28;20035;-67
2023/02/19 05:49:09;;;;;;;7.35;5.20;;;6.70;99.90;;;;;;5069941;28;20028;-68
2023/02/19 05:51:35;;;;;;;7.57;5.57;;;6.60;99.90;;;;;;5053683;28;20043;-67
2023/02/19 05:54:01;;;;;;;8.10;4.63;;;6.60;99.90;;;;;;5072467;28;20276;-68
2023/02/19 05:56:39;;;;;;;5.60;4.35;;;6.50;99.90;;;;;;5088379;28;20044;-67
2023/02/19 05:59:14;;;;;;;7.30;4.38;;;6.50;99.90;;;;;;5091284;28;20111;-67
2023/02/19 06:01:39;;;;;;;7.28;4.78;;;6.50;99.90;;;;;;5067954;28;20168;-68
2023/02/19 06:04:05;;;;;;;7.30;4.55;;;6.50;99.90;;;;;;5068512;28;20067;-68
2023/02/19 06:06:31;;;;;;;5.72;4.15;;;6.50;99.90;;;;;;5081681;28;20042;-68
2023/02/19 06:09:00;;;;;;;8.35;5.22;;;6.50;99.90;;;;;;5087378;28;20036;-68
2023/02/19 06:11:27;;;;;;;7.40;4.43;;;6.50;99.90;;;;;;5068999;28;20460;-68
2023/02/19 06:13:53;;;;;;;7.47;4.70;;;6.40;99.90;;;;;;5066693;28;20039;-68
2023/02/19 06:16:20;;;;;;;7.65;4.95;;;6.40;99.90;;;;;;5068607;28;20525;-68
2023/02/19 06:18:47;;;;;;;7.50;4.72;;;6.40;99.90;;;;;;5082904;28;20048;-68
2023/02/19 06:21:14;;;;;;;6.95;4.47;;;6.40;99.90;;;;;;5066305;28;20124;-68
2023/02/19 06:23:40;;;;;;;9.48;5.38;;;6.40;99.90;;;;;;5080014;28;20052;-68
2023/02/19 06:26:13;;;;;;;7.65;5.03;;;6.40;99.90;;;;;;5081527;28;20059;-68
2023/02/19 06:28:40;;;;;;;8.68;5.18;;;6.30;99.90;;;;;;5067243;28;20032;-68
2023/02/19 06:31:07;;;;;;;7.43;5.15;;;6.30;99.90;;;;;;5071700;28;20185;-68
2023/02/19 06:33:34;;;;;;;8.10;4.93;;;6.30;99.90;;;;;;5070667;28;20128;-67
2023/02/19 06:36:02;;;;;;;9.73;4.57;;;6.30;99.90;;;;;;5066543;28;20040;-68
2023/02/19 06:38:29;;;;;;;6.90;4.97;;;6.30;99.90;;;;;;5073080;28;20472;-67
2023/02/19 06:40:58;;;;;;;8.65;5.18;;;6.30;99.90;;;;;;5063425;28;20036;-68
2023/02/19 06:43:24;;;;;;;11.77;5.57;;;6.20;99.90;;;;;;5050484;28;20031;-68
2023/02/19 06:45:49;;;;;;;8.48;5.20;;;6.20;99.90;;;;;;5048019;28;20116;-67
2023/02/19 06:48:15;;;;;;;9.15;5.45;;;6.20;99.90;;;;;;5064823;28;20128;-68
2023/02/19 06:50:41;;;;;;;9.07;5.82;;;6.20;99.90;;;;;;5066884;28;20737;-68
2023/02/19 06:53:07;;;;;;;9.40;6.18;;;6.20;99.90;;;;;;5065421;28;20032;-68
2023/02/19 06:55:33;;;;;;;8.48;6.05;;;6.10;99.90;;;;;;5065823;28;20048;-68
2023/02/19 06:57:59;;;;;;;8.30;6.25;;;6.10;99.90;;;;;;5064115;28;20036;-68
2023/02/19 07:00:25;;;;;;;10.15;5.97;;;6.10;99.90;;;;;;5069418;28;20052;-67
2023/02/19 07:02:55;;;;;;;11.65;6.72;;;6.10;99.90;;;;;;5068680;28;20072;-68
2023/02/19 07:05:24;;;;;;;9.88;6.35;;;6.10;99.90;;;;;;5069729;28;20032;-67
2023/02/19 07:07:50;;;;;;;8.73;5.90;;;6.10;99.90;;;;;;5083266;28;20075;-67
2023/02/19 07:10:16;;;;;;;8.75;6.78;;;6.10;99.90;;;;;;5063502;28;20518;-66
2023/02/19 07:12:42;;;;;;;9.25;6.78;;;6.10;99.90;;;;;;5066508;28;20100;-67
2023/02/19 07:15:08;;;;;;;9.65;6.97;;;6.10;99.90;;;;;;5063540;28;20040;-68
2023/02/19 07:17:34;;;;;;;25.70;19.50;;;6.10;99.90;;;;;;5070377;28;20040;-68
2023/02/19 07:20:00;;;;;;;7.90;6.57;;;6.00;99.90;;;;;;5061476;28;20098;-67
2023/02/19 07:22:26;;;;;;;5.03;3.72;;;6.00;99.90;;;;;;5059676;28;20078;-68
2023/02/19 07:24:52;;;;;;;6.53;4.03;;;5.90;99.90;;;;;;5066589;28;20059;-67
2023/02/19 07:27:17;;;;;;;5.43;4.07;;;5.90;99.90;;;;;;5062668;28;20369;-67
2023/02/19 07:29:43;;;;;;;4.88;3.80;;;5.90;99.90;;;;;;5070397;28;20035;-67
2023/02/19 07:32:09;;;;;;;5.82;4.55;;;5.90;99.90;;;;;;5067281;28;20044;-68
2023/02/19 07:34:35;;;;;;;4.82;4.25;;;5.80;99.90;;;;;;5064376;28;20039;-67
2023/02/19 07:37:01;;;;;;;6.15;3.78;;;5.70;99.90;;;;;;5068175;28;20083;-68
2023/02/19 07:39:26;;;;;;;9.43;4.43;;;5.70;99.90;;;;;;5064525;28;20119;-68
2023/02/19 07:41:52;;;;;;;5.70;4.10;;;5.80;99.90;;;;;;5055357;28;20396;-67
2023/02/19 07:44:18;;;;;;;4.78;4.13;;;5.80;99.90;;;;;;5068492;28;20064;-67
2023/02/19 07:46:44;;;;;;;6.07;3.90;;;5.90;99.90;;;;;;5083014;28;20036;-68
2023/02/19 07:49:10;;;;;;;6.93;3.42;;;5.90;99.90;;;;;;5063982;28;20124;-67
2023/02/19 07:51:38;;;;;;;3.83;3.22;;;5.80;99.90;;;;;;5068172;28;20122;-67
2023/02/19 07:54:04;;;;;;;6.07;3.83;;;5.90;99.90;;;;;;5063751;28;20048;-67
2023/02/19 07:56:30;;;;;;;6.32;3.20;;;5.80;99.90;;;;;;5071510;28;20112;-67
2023/02/19 07:58:56;;;;;;;4.72;3.40;;;5.80;99.90;;;;;;5085645;28;20043;-67
2023/02/19 08:02:58;;;;;;;4.95;3.22;;;5.80;99.90;;;;;;5073319;28;20048;-67
2023/02/19 08:04:10;;;;;;;5.32;3.20;;;5.80;99.90;;;;;;5084468;28;20453;-67
2023/02/19 08:06:36;;;;;;;4.93;3.72;;;5.80;99.90;;;;;;5067811;28;20040;-67
2023/02/19 08:09:03;;;;;;;5.78;3.05;;;5.80;99.90;;;;;;5066719;28;20044;-67
2023/02/19 08:14:13;;;;;;;5.83;3.67;;;5.90;99.90;;;;;;5087716;28;20047;-70
2023/02/19 08:16:39;;;;;;;5.00;3.47;;;5.90;99.90;;;;;;5085562;28;20274;-70
2023/02/19 08:19:05;;;;;;;5.05;3.83;;;6.20;99.90;;;;;;5062835;28;20036;-69
2023/02/19 08:21:30;;;;;;;5.07;3.00;;;6.50;99.90;;;;;;5067620;28;20108;-70
2023/02/19 08:23:56;;;;;;;4.82;3.40;;;7.10;99.90;;;;;;5050130;28;20504;-69
2023/02/19 08:26:22;;;;;;;6.15;3.40;;;8.20;99.90;;;;;;5060169;28;20120;-70
2023/02/19 08:28:47;;;;;;;4.40;3.17;;;8.60;99.90;;;;;;5086444;28;20077;-70
2023/02/19 08:31:14;;;;;;;3.13;2.83;;;8.60;99.90;;;;;;5069309;28;20480;-70
2023/02/19 08:33:40;;;;;;;5.15;3.38;;;8.30;99.90;;;;;;5071305;28;20154;-70
2023/02/19 08:36:08;;;;;;;5.13;3.25;;;8.00;99.90;;;;;;5069650;28;20035;-70
2023/02/19 08:38:35;;;;;;;3.65;3.15;;;7.80;99.90;;;;;;5071595;28;20058;-69
2023/02/19 08:41:10;;;;;;;4.22;2.85;;;7.50;99.90;;;;;;5087373;28;20484;-69
2023/02/19 08:43:35;;;;;;;;;;;7.30;99.90;;;;;;5067364;28;20036;-70
2023/02/19 08:46:02;;;;;;;3.53;2.90;;;7.00;99.90;;;;;;5068071;28;19923;-70
2023/02/19 08:48:28;;;;;;;3.25;2.28;;;6.90;99.90;;;;;;5086945;28;20787;-69
2023/02/19 08:50:55;;;;;;;2.67;2.20;;;6.90;99.90;;;;;;5085097;28;20040;-69
2023/02/19 08:53:22;;;;;;;7.13;3.17;;;6.80;99.90;;;;;;5067501;28;20119;-69
2023/02/19 08:55:48;;;;;;;69.65;8.10;;;7.30;99.90;;;;;;5073171;28;20043;-69
2023/02/19 08:58:14;;;;;;;64.88;6.75;;;8.60;99.90;;;;;;5087463;28;20034;-69
2023/02/19 09:00:39;;;;;;;12.05;3.75;;;9.50;99.90;;;;;;5067664;28;20115;-70
2023/02/19 09:03:05;;;;;;;65.35;7.18;;;10.20;99.90;;;;;;5070367;28;20097;-70
2023/02/19 09:05:31;;;;;;;18.25;3.58;;;11.00;99.90;;;;;;5072212;28;20087;-70
2023/02/19 09:07:56;;;;;;;70.57;7.80;;;11.80;99.90;;;;;;5082272;28;20032;-69
2023/02/19 09:10:22;;;;;;;4.13;2.55;;;12.40;99.90;;;;;;5069368;28;20036;-70
2023/02/19 09:12:48;;;;;;;42.22;4.90;;;13.10;99.90;;;;;;5055680;28;20733;-70
2023/02/19 09:15:14;;;;;;;30.70;3.75;;;13.90;99.90;;;;;;5082496;28;20040;-70
2023/02/19 09:17:40;;;;;;;3.50;2.53;;;14.70;99.90;;;;;;5070137;28;20044;-70
2023/02/19 09:20:06;;;;;;;4.80;2.38;;;15.20;99.90;;;;;;5063747;28;20083;-66
2023/02/19 09:22:31;;;;;;;2.50;2.28;;;15.50;99.90;;;;;;5087648;28;20048;-66
2023/02/19 09:24:57;;;;;;;2.50;2.15;;;15.80;99.90;;;;;;5084572;28;20388;-66
2023/02/19 09:27:23;;;;;;;2.25;1.98;;;15.90;99.90;;;;;;5082300;28;20135;-66
2023/02/19 09:29:49;;;;;;;2.53;2.08;;;15.80;99.90;;;;;;5066908;28;20387;-66
2023/02/19 09:32:14;;;;;;;3.17;1.60;;;16.20;99.90;;;;;;5086711;28;20732;-67
2023/02/19 09:34:40;;;;;;;2.00;1.52;;;16.70;99.90;;;;;;5083969;28;20039;-67
2023/02/19 09:37:06;;;;;;;2.08;1.55;;;16.60;99.90;;;;;;5089156;28;20121;-67
2023/02/19 09:39:33;;;;;;;3.13;2.70;;;16.50;99.90;;;;;;5087666;28;20067;-67
2023/02/19 09:42:19;;;;;;;2.10;1.70;;;16.80;99.90;;;;;;5084576;28;20041;-67
2023/02/19 09:44:48;;;;;;;1.75;1.00;;;17.40;99.90;;;;;;5085369;28;20041;-67
2023/02/19 09:47:26;;;;;;;1.35;1.00;;;17.80;99.90;;;;;;5066061;28;20036;-67
2023/02/19 09:50:00;;;;;;;2.67;1.85;;;18.10;99.90;;;;;;5081969;28;20040;-67
2023/02/19 09:52:37;;;;;;;2.67;1.52;;;18.10;99.90;;;;;;5081102;28;20125;-67
2023/02/19 09:55:12;;;;;;;2.05;1.38;;;17.20;99.90;;;;;;5082182;28;20036;-68
2023/02/19 09:57:39;;;;;;;2.90;1.50;;;16.30;99.90;;;;;;5087013;28;20421;-67
2023/02/19 10:00:18;;;;;;;1.95;1.45;;;14.90;99.90;;;;;;5071905;28;20368;-67
2023/02/19 10:02:44;;;;;;;1.65;1.20;;;13.40;99.90;;;;;;5084105;28;20059;-69
2023/02/19 10:05:14;;;;;;;2.50;1.50;;;12.20;99.90;;;;;;5072199;28;20040;-69
2023/02/19 10:07:46;;;;;;;1.98;0.93;;;11.40;99.90;;;;;;5067728;28;20092;-69
2023/02/19 10:10:12;;;;;;;1.52;0.70;;;10.90;99.90;;;;;;5068458;28;20043;-69
2023/02/19 10:12:49;;;;;;;1.27;1.10;;;10.50;99.90;;;;;;5078824;28;20043;-69
2023/02/19 10:15:21;;;;;;;2.08;1.38;;;10.70;99.90;;;;;;5075189;28;20447;-69
2023/02/19 10:17:46;;;;;;;2.95;1.60;;;11.40;99.90;;;;;;5078462;28;20137;-69
2023/02/19 10:20:18;;;;;;;2.63;1.52;;;12.60;99.90;;;;;;5072642;28;20067;-69
2023/02/19 10:22:45;;;;;;;2.35;1.30;;;12.80;99.90;;;;;;5079783;28;20047;-69
2023/02/19 10:25:15;;;;;;;2.80;1.52;;;12.90;99.90;;;;;;5068407;28;20045;-69
2023/02/19 10:27:42;;;;;;;2.55;1.17;;;13.40;99.90;;;;;;5069760;28;20033;-70
2023/02/19 10:30:22;;;;;;;2.53;1.15;;;13.70;99.90;;;;;;5067565;28;20389;-70
2023/02/19 10:33:15;;;;;;;2.00;1.25;;;14.50;99.90;;;;;;5068251;28;20822;-70
2023/02/19 10:35:59;;;;;;;3.15;1.30;;;15.20;99.90;;;;;;5070398;28;20044;-70
2023/02/19 10:38:32;;;;;;;2.30;0.93;;;16.10;99.90;;;;;;5070478;28;20052;-70
2023/02/19 10:41:03;;;;;;;3.10;1.10;;;15.90;99.90;;;;;;5055811;28;20193;-70
2023/02/19 10:43:35;;;;;;;4.22;1.45;;;15.80;99.90;;;;;;5069173;28;20037;-70
2023/02/19 10:46:05;;;;;;;1.75;0.77;;;15.80;99.90;;;;;;5070074;28;20040;-70
2023/02/19 10:48:35;;;;;;;3.10;1.30;;;15.10;99.90;;;;;;5071902;28;20636;-70
2023/02/19 10:51:09;;;;;;;2.60;1.00;;;15.30;99.90;;;;;;5085279;28;20037;-70
2023/02/19 10:53:46;;;;;;;1.67;0.80;;;15.20;99.90;;;;;;5070629;28;20811;-70
2023/02/19 10:56:21;;;;;;;1.67;0.60;;;15.90;99.90;;;;;;5081844;28;20045;-70
2023/02/19 10:58:47;;;;;;;1.95;0.68;;;15.90;99.90;;;;;;5068642;28;20086;-70
2023/02/19 11:01:19;;;;;;;1.50;0.60;;;15.00;99.90;;;;;;5068358;28;20036;-70
2023/02/19 11:04:02;;;;;;;1.17;0.70;;;14.00;99.90;;;;;;5067155;28;20085;-70
2023/02/19 11:06:28;;;;;;;1.33;0.80;;;12.80;99.90;;;;;;5067124;28;20107;-70
2023/02/19 11:08:59;;;;;;;1.42;0.60;;;11.90;99.90;;;;;;5068255;28;20032;-70
2023/02/19 11:11:34;;;;;;;1.20;0.52;;;11.30;99.90;;;;;;5067518;28;20079;-69
2023/02/19 11:14:13;;;;;;;1.15;0.60;;;10.90;99.90;;;;;;5061333;28;20087;-70
2023/02/19 11:16:42;;;;;;;1.83;0.55;;;10.60;99.90;;;;;;5065156;28;20115;-70
2023/02/19 11:19:26;;;;;;;1.30;0.30;;;10.40;99.90;;;;;;5050445;28;20040;-70
2023/02/19 11:21:52;;;;;;;0.68;0.30;;;10.20;99.90;;;;;;5068471;28;20507;-70
2023/02/19 11:24:35;;;;;;;2.03;0.40;;;10.00;99.90;;;;;;5052661;28;20099;-70
2023/02/19 11:27:04;;;;;;;2.33;0.40;;;9.80;99.90;;;;;;5067312;28;20499;-70
2023/02/19 11:29:33;;;;;;;1.25;0.30;;;9.60;99.90;;;;;;5063845;28;20048;-70
2023/02/19 11:32:28;;;;;;;1.55;0.30;;;9.50;99.90;;;;;;5063713;28;20055;-70
2023/02/19 11:35:18;;;;;;;1.30;0.20;;;9.40;99.90;;;;;;5061027;28;20319;-70
2023/02/19 11:38:00;;;;;;;1.08;0.20;;;9.40;99.90;;;;;;5064645;28;20520;-70
2023/02/19 11:40:38;;;;;;;1.45;0.50;;;9.40;99.90;;;;;;5061779;28;20102;-70
2023/02/19 11:43:19;;;;;;;1.08;0.38;;;9.50;99.90;;;;;;5066393;28;20036;-75
2023/02/19 11:46:08;;;;;;;2.13;0.40;;;9.40;99.90;;;;;;5061872;28;20041;-70
2023/02/19 11:48:45;;;;;;;1.00;0.50;;;9.30;99.90;;;;;;5064574;28;20473;-70
2023/02/19 11:51:33;;;;;;;1.25;0.40;;;9.20;99.90;;;;;;5075710;28;21599;-70
2023/02/19 11:54:26;;;;;;;2.47;0.40;;;9.10;99.90;;;;;;5065362;28;20111;-70
2023/02/19 11:57:13;;;;;;;2.47;0.40;;;9.00;99.90;;;;;;5028378;28;20079;-69
2023/02/19 11:59:55;;;;;;;0.80;0.40;;;8.80;99.90;;;;;;5064951;28;20045;-70
2023/02/19 12:02:37;;;;;;;2.33;0.47;;;8.80;99.90;;;;;;5062926;28;20041;-69
2023/02/19 12:05:23;;;;;;;0.98;0.50;;;8.80;99.90;;;;;;5049844;28;20415;-69
2023/02/19 12:07:54;;;;;;;1.92;0.45;;;8.80;99.90;;;;;;5059295;28;20041;-69
2023/02/19 12:10:47;;;;;;;1.45;0.90;;;8.80;99.90;;;;;;5087158;28;20141;-70
2023/02/19 12:13:43;;;;;;;1.52;0.55;;;8.90;99.90;;;;;;5058649;28;20052;-70
2023/02/19 12:17:01;;;;;;;1.65;0.52;;;8.90;99.90;;;;;;5066320;28;20419;-71
2023/02/19 12:19:45;;;;;;;1.42;0.68;;;8.90;99.90;;;;;;5063288;28;20064;-70
2023/02/19 12:22:17;;;;;;;1.98;0.55;;;8.90;99.90;;;;;;5064635;28;20048;-70
2023/02/19 12:25:22;;;;;;;1.02;0.50;;;9.00;99.90;;;;;;5080327;28;20051;-70
2023/02/19 12:28:00;;;;;;;2.05;0.50;;;9.10;99.90;;;;;;5071794;28;20499;-70
2023/02/19 12:30:46;;;;;;;1.83;0.60;;;9.20;99.90;;;;;;5070712;28;20491;-71
2023/02/19 12:33:39;;;;;;;1.95;0.40;;;9.20;99.90;;;;;;5067588;28;20062;-69
2023/02/19 12:36:05;;;;;;;2.75;0.40;;;9.30;99.90;;;;;;5083369;28;20044;-69
2023/02/19 12:39:03;;;;;;;0.77;0.20;;;9.20;99.90;;;;;;5082069;28;20055;-67
2023/02/19 12:42:06;;;;;;;1.45;0.30;;;9.30;99.90;;;;;;5014815;28;20425;-65
2023/02/19 12:44:41;;;;;;;1.40;0.25;;;9.30;99.90;;;;;;5064226;28;20043;-66
2023/02/19 12:47:11;;;;;;;1.45;0.38;;;9.20;99.90;;;;;;5083052;28;20079;-66
2023/02/19 12:49:42;;;;;;;1.88;0.20;;;9.20;99.90;;;;;;5085128;28;20047;-66
2023/02/19 12:52:23;;;;;;;2.05;0.13;;;9.20;99.90;;;;;;5084735;28;20169;-66
2023/02/19 12:54:56;;;;;;;1.10;0.30;;;9.20;99.90;;;;;;5085594;28;20078;-65
2023/02/19 12:57:27;;;;;;;2.83;0.22;;;9.20;99.90;;;;;;5085760;28;20046;-65
2023/02/19 13:00:21;;;;;;;3.22;0.20;;;9.10;99.90;;;;;;5085018;28;20043;-66
2023/02/19 13:03:01;;;;;;;2.15;0.38;;;9.10;99.90;;;;;;5085598;28;20048;-67
2023/02/19 13:05:37;;;;;;;2.58;0.30;;;9.20;99.90;;;;;;5070625;28;20051;-65
2023/02/19 13:08:03;;;;;;;2.38;0.20;;;9.20;99.90;;;;;;5068166;28;20043;-66
2023/02/19 13:10:43;;;;;;;1.92;0.22;;;9.20;99.90;;;;;;5074014;28;20344;-65
2023/02/19 13:13:21;;;;;;;3.70;0.30;;;9.30;99.90;;;;;;5080346;28;20044;-66
2023/02/19 13:15:52;;;;;;;1.42;0.20;;;9.30;99.90;;;;;;5085775;28;20051;-69
2023/02/19 13:18:27;;;;;;;2.03;0.20;;;9.30;99.90;;;;;;5083375;28;20504;-65
2023/02/19 13:20:55;;;;;;;2.53;0.30;;;9.30;99.90;;;;;;5084887;28;20044;-63
2023/02/19 13:26:39;;;;;;;1.25;0.25;;;9.30;99.90;;;;;;5046270;28;20048;-67
2023/02/19 13:29:31;;;;;;;1.10;0.25;;;9.30;99.90;;;;;;5042160;28;20551;-64
2023/02/19 13:32:11;;;;;;;1.10;0.20;;;9.40;99.90;;;;;;5048241;28;20049;-65
2023/02/19 13:35:01;;;;;;;2.30;0.30;;;9.40;99.90;;;;;;5048033;28;20059;-64
2023/02/19 13:37:32;;;;;;;0.73;0.30;;;9.40;99.90;;;;;;5047317;28;20473;-71